Time;durP1;ratioP1;P1;durP2;ratioP2;P2;SDS_P1;SDS_P2;PMS_P1;PMS_P2;Temp;Humidity;BMP_temperature;BMP_pressure;BME280_temperature;BME280_humidity;BME280_pressure;Samples;Min_cycle;Max_cycle;Signal;HPM_P1;HPM_P2
2024/02/12 00:01:35;;;;;;;;;;;;;;;3.67;100.00;99460.05;108344;1251;72523;-74
2024/02/12 00:04:02;;;;;;;;;;;;;;;3.67;100.00;99461.44;108390;1251;71075;-74
2024/02/12 00:06:29;;;;;;;;;;;;;;;3.68;100.00;99454.68;108377;1251;61266;-73
2024/02/12 00:08:56;;;;;;;;;;;;;;;3.71;100.00;99447.56;108429;1251;61693;-74
2024/02/12 00:11:24;;;;;;;;;;;;;;;3.71;100.00;99449.92;108425;1251;72761;-74
2024/02/12 00:13:51;;;;;;;;;;;;;;;3.66;100.00;99451.61;108370;1251;70929;-74
2024/02/12 00:16:17;;;;;;;;;;;;;;;3.65;100.00;99453.27;108528;1253;73551;-75
2024/02/12 00:18:46;;;;;;;;;;;;;;;3.64;100.00;99459.42;108352;1255;61202;-74
2024/02/12 00:21:14;;;;;;;;;;;;;;;3.64;100.00;99459.59;108451;1251;61155;-73
2024/02/12 00:23:43;;;;;;;;;;;;;;;3.66;100.00;99463.90;108571;1251;74571;-74
2024/02/12 00:26:10;;;;;;;;;;;;;;;3.65;100.00;99463.95;108302;1251;73442;-74
2024/02/12 00:28:37;;;;;;;;;;;;;;;3.65;100.00;99463.14;108349;1251;72678;-75
2024/02/12 00:31:04;;;;;;;;;;;;;;;3.64;100.00;99465.66;108357;1251;61234;-74
2024/02/12 00:33:33;;;;;;;;;;;;;;;3.67;100.00;99461.02;108389;1251;60004;-75
2024/02/12 00:36:00;;;;;;;;;;;;;;;3.67;100.00;99453.98;108348;1254;73083;-74
2024/02/12 00:38:27;;;;;;;;;;;;;;;3.64;100.00;99448.66;108406;1251;72770;-74
2024/02/12 00:40:54;;;;;;;;;;;;;;;3.63;100.00;99442.73;108377;1251;71387;-74
2024/02/12 00:43:21;;;;;;;;;;;;;;;3.62;100.00;99438.39;108336;1251;61196;-75
2024/02/12 00:45:48;;;;;;;;;;;;;;;3.62;100.00;99440.33;108342;1251;61580;-74
2024/02/12 00:48:15;;;;;;;;;;;;;;;3.63;100.00;99440.57;108377;1251;73200;-74
2024/02/12 00:50:42;;;;;;;;;;;;;;;3.63;100.00;99439.30;108362;1251;72803;-74
2024/02/12 00:53:09;;;;;;;;;;;;;;;3.64;100.00;99431.77;108347;1251;72705;-74
2024/02/12 00:55:39;;;;;;;;;;;;;;;3.66;100.00;99430.59;108343;1251;61057;-74
2024/02/12 00:58:06;;;;;;;;;;;;;;;3.67;100.00;99430.23;108419;1251;59811;-75
2024/02/12 01:00:33;;;;;;;;;;;;;;;3.66;100.00;99427.09;108373;1251;74933;-75
2024/02/12 01:03:00;;;;;;;;;;;;;;;3.66;100.00;99425.52;108388;1251;73220;-75
2024/02/12 01:05:29;;;;;;;;;;;;;;;3.66;100.00;99426.99;108373;1255;73071;-75
2024/02/12 01:07:56;;;;;;;;;;;;;;;3.66;100.00;99425.26;108346;1251;61253;-75
2024/02/12 01:10:22;;;;;;;;;;;;;;;3.67;100.00;99422.71;108382;1251;62764;-75
2024/02/12 01:12:49;;;;;;;;;;;;;;;3.68;100.00;99420.15;108381;1253;74136;-76
2024/02/12 01:15:16;;;;;;;;;;;;;;;3.69;100.00;99418.96;108373;1251;72802;-75
2024/02/12 01:17:43;;;;;;;;;;;;;;;3.70;100.00;99420.61;108353;1251;71455;-75
2024/02/12 01:20:17;;;;;;;;;;;;;;;3.71;100.00;99413.19;108363;1251;61118;-75
2024/02/12 01:22:44;;;;;;;;;;;;;;;3.72;100.00;99402.80;108490;1251;61201;-75
2024/02/12 01:25:12;;;;;;;;;;;;;;;3.72;100.00;99401.95;108479;1251;75713;-75
2024/02/12 01:27:39;;;;;;;;;;;;;;;3.73;100.00;99401.70;108424;1251;71952;-74
2024/02/12 01:30:06;;;;;;;;;;;;;;;3.72;100.00;99399.84;108429;1251;72629;-74
2024/02/12 01:32:33;;;;;;;;;;;;;;;3.70;100.00;99390.78;108360;1251;60915;-74
2024/02/12 01:35:02;;;;;;;;;;;;;;;3.67;100.00;99396.11;108379;1251;61291;-75
2024/02/12 01:37:29;;;;;;;;;;;;;;;3.64;100.00;99409.53;108300;1251;74650;-75
2024/02/12 01:39:56;;;;;;;;;;;;;;;3.68;100.00;99412.77;108416;1251;72547;-75
2024/02/12 01:42:23;;;;;;;;;;;;;;;3.78;100.00;99414.13;108376;1251;73648;-75
2024/02/12 01:45:13;;;;;;;;;;;;;;;3.88;100.00;99412.33;108411;1251;61112;-75
2024/02/12 01:47:41;;;;;;;;;;;;;;;3.99;100.00;99409.13;108412;1251;61077;-76
2024/02/12 01:50:12;;;;;;;;;;;;;;;4.08;100.00;99410.79;108332;1251;75118;-75
2024/02/12 01:52:48;;;;;;;;;;;;;;;4.13;100.00;99422.65;108402;1251;72647;-75
2024/02/12 01:55:16;;;;;;;;;;;;;;;4.14;100.00;99421.03;108330;1251;72524;-75
2024/02/12 01:57:43;;;;;;;;;;;;;;;4.16;100.00;99418.78;108373;1251;60852;-77
2024/02/12 02:00:11;;;;;;;;;;;;;;;4.18;100.00;99417.91;108406;1251;61071;-76
2024/02/12 02:02:43;;;;;;;;;;;;;;;4.20;100.00;99413.65;108417;1251;75022;-76
2024/02/12 02:05:13;;;;;;;;;;;;;;;4.18;100.00;99404.55;108417;1251;70695;-75
2024/02/12 02:07:40;;;;;;;;;;;;;;;4.15;100.00;99399.98;108423;1251;72733;-74
2024/02/12 02:10:09;;;;;;;;;;;;;;;4.14;100.00;99397.54;108398;1251;61882;-74
2024/02/12 02:12:36;;;;;;;;;;;;;;;4.12;100.00;99386.59;108398;1251;61291;-75
2024/02/12 02:15:05;;;;;;;;;;;;;;;4.09;100.00;99382.95;108367;1251;74309;-75
2024/02/12 02:17:32;;;;;;;;;;;;;;;4.08;100.00;99383.52;108347;1251;71565;-74
2024/02/12 02:20:00;;;;;;;;;;;;;;;4.05;100.00;99381.39;108415;1256;72058;-74
2024/02/12 02:22:29;;;;;;;;;;;;;;;4.04;100.00;99385.61;108370;1251;61128;-74
2024/02/12 02:24:57;;;;;;;;;;;;;;;4.02;100.00;99382.31;108326;1251;61314;-74
2024/02/12 02:27:25;;;;;;;;;;;;;;;3.97;100.00;99387.73;108467;1251;74585;-75
2024/02/12 02:29:52;;;;;;;;;;;;;;;3.97;100.00;99392.88;108435;1251;71393;-75
2024/02/12 02:32:19;;;;;;;;;;;;;;;4.01;100.00;99392.17;108368;1251;72510;-75
2024/02/12 02:34:47;;;;;;;;;;;;;;;4.03;100.00;99390.48;108398;1251;61862;-76
2024/02/12 02:37:15;;;;;;;;;;;;;;;4.03;100.00;99395.59;108437;1251;61089;-75
2024/02/12 02:39:42;;;;;;;;;;;;;;;4.02;100.00;99396.08;108410;1251;75123;-75
2024/02/12 02:42:09;;;;;;;;;;;;;;;4.00;100.00;99396.98;108463;1251;70891;-75
2024/02/12 02:44:39;;;;;;;;;;;;;;;3.99;100.00;99399.61;108407;1251;71184;-74
2024/02/12 02:47:08;;;;;;;;;;;;;;;4.02;100.00;99401.61;108444;1251;61908;-76
2024/02/12 02:49:35;;;;;;;;;;;;;;;4.07;100.00;99401.52;108413;1251;60031;-75
2024/02/12 02:52:04;;;;;;;;;;;;;;;4.10;100.00;99396.02;108414;1251;73555;-74
2024/02/12 02:54:34;;;;;;;;;;;;;;;4.14;100.00;99396.13;108418;1251;72547;-76
2024/02/12 02:57:01;;;;;;;;;;;;;;;4.17;100.00;99398.60;108369;1251;72331;-76
2024/02/12 02:59:30;;;;;;;;;;;;;;;4.20;100.00;99402.45;108445;1251;61978;-76
2024/02/12 03:01:57;;;;;;;;;;;;;;;4.24;100.00;99405.52;108435;1251;59281;-76
2024/02/12 03:04:23;;;;;;;;;;;;;;;4.26;100.00;99407.23;108454;1251;75453;-76
2024/02/12 03:06:50;;;;;;;;;;;;;;;4.28;100.00;99406.41;108425;1251;72191;-76
2024/02/12 03:09:17;;;;;;;;;;;;;;;4.32;100.00;99402.67;108459;1251;73565;-76
2024/02/12 03:11:45;;;;;;;;;;;;;;;4.39;100.00;99394.94;108420;1251;61814;-76
2024/02/12 03:14:12;;;;;;;;;;;;;;;4.43;100.00;99384.46;108442;1251;61214;-76
2024/02/12 03:16:39;;;;;;;;;;;;;;;4.48;100.00;99389.71;108352;1256;73617;-76
2024/02/12 03:19:06;;;;;;;;;;;;;;;4.52;100.00;99388.60;108367;1251;73283;-76
2024/02/12 03:21:33;;;;;;;;;;;;;;;4.52;100.00;99387.06;108397;1251;71171;-76
2024/02/12 03:24:00;;;;;;;;;;;;;;;4.51;100.00;99384.23;108420;1251;61065;-76
2024/02/12 03:26:27;;;;;;;;;;;;;;;4.46;100.00;99377.95;108425;1251;61050;-76
2024/02/12 03:28:54;;;;;;;;;;;;;;;4.47;100.00;99380.80;108449;1251;75197;-76
2024/02/12 03:31:21;;;;;;;;;;;;;;;4.61;100.00;99380.23;108435;1256;72829;-76
2024/02/12 03:33:49;;;;;;;;;;;;;;;4.71;100.00;99381.05;108329;1251;73280;-76
2024/02/12 03:36:18;;;;;;;;;;;;;;;4.71;100.00;99390.84;108398;1251;61329;-75
2024/02/12 03:38:44;;;;;;;;;;;;;;;4.75;100.00;99395.80;108318;1251;61080;-76
2024/02/12 03:41:18;;;;;;;;;;;;;;;4.82;100.00;99397.05;108306;1251;74460;-75
2024/02/12 03:43:46;;;;;;;;;;;;;;;4.92;100.00;99390.00;108384;1251;71686;-76
2024/02/12 03:46:20;;;;;;;;;;;;;;;4.63;100.00;99395.08;108378;1251;72665;-75
2024/02/12 03:59:58;;;;;;;;;;;;;;;4.85;100.00;99376.61;108398;1251;72596;-76
2024/02/12 04:02:27;;;;;;;;;;;;;;;4.71;100.00;99378.03;108380;1251;61116;-75
2024/02/12 04:04:54;;;;;;;;;;;;;;;4.65;100.00;99368.13;108465;1251;60467;-75
2024/02/12 04:07:24;;;;;;;;;;;;;;;4.62;100.00;99367.77;108404;1251;74638;-75
2024/02/12 04:09:51;;;;;;;;;;;;;;;4.56;100.00;99366.38;108416;1251;71470;-75
2024/02/12 04:12:18;;;;;;;;;;;;;;;4.46;100.00;99368.37;108382;1256;71366;-75
2024/02/12 04:14:46;;;;;;;;;;;;;;;4.39;100.00;99365.27;108423;1251;62274;-75
2024/02/12 04:17:14;;;;;;;;;;;;;;;4.37;100.00;99367.04;108347;1256;61825;-75
2024/02/12 04:19:42;;;;;;;;;;;;;;;4.39;100.00;99373.36;108466;1251;74416;-75
2024/02/12 04:22:09;;;;;;;;;;;;;;;4.40;100.00;99378.92;108408;1251;72751;-76
2024/02/12 04:24:41;;;;;;;;;;;;;;;4.42;100.00;99381.13;108410;1251;71267;-75
2024/02/12 04:27:09;;;;;;;;;;;;;;;4.45;100.00;99378.20;108380;1251;62015;-74
2024/02/12 04:29:40;;;;;;;;;;;;;;;4.53;100.00;99376.66;108485;1251;61195;-75
2024/02/12 04:32:11;;;;;;;;;;;;;;;4.58;100.00;99374.85;108414;1251;74751;-75
2024/02/12 04:34:39;;;;;;;;;;;;;;;4.61;100.00;99369.72;108433;1256;71396;-74
2024/02/12 04:37:11;;;;;;;;;;;;;;;4.65;100.00;99371.39;108462;1251;73123;-75
2024/02/12 04:39:38;;;;;;;;;;;;;;;4.65;100.00;99374.09;108414;1251;62050;-75
2024/02/12 04:42:05;;;;;;;;;;;;;;;4.62;100.00;99381.31;108415;1251;61082;-75
2024/02/12 04:44:32;;;;;;;;;;;;;;;4.60;100.00;99383.29;108368;1255;75434;-74
2024/02/12 04:46:59;;;;;;;;;;;;;;;4.57;100.00;99378.61;108380;1251;71451;-74
2024/02/12 04:49:26;;;;;;;;;;;;;;;4.51;100.00;99382.61;108343;1251;72653;-74
2024/02/12 04:51:53;;;;;;;;;;;;;;;4.47;100.00;99375.84;108314;1251;61370;-74
2024/02/12 04:54:20;;;;;;;;;;;;;;;4.46;100.00;99374.23;108255;1251;61134;-75
2024/02/12 04:56:46;;;;;;;;;;;;;;;4.48;100.00;99373.00;108421;1251;74445;-76
2024/02/12 04:59:16;;;;;;;;;;;;;;;4.50;100.00;99371.70;108344;1252;72621;-75
2024/02/12 05:01:43;;;;;;;;;;;;;;;4.46;100.00;99374.40;108321;1251;70467;-75
2024/02/12 05:04:20;;;;;;;;;;;;;;;4.44;100.00;99373.48;108611;1251;61980;-75
2024/02/12 05:06:47;;;;;;;;;;;;;;;4.38;100.00;99368.48;108430;1251;61061;-75
2024/02/12 05:09:15;;;;;;;;;;;;;;;4.34;100.00;99368.90;108355;1251;73440;-75
2024/02/12 05:11:41;;;;;;;;;;;;;;;4.31;100.00;99372.67;108513;1251;71977;-75
2024/02/12 05:14:08;;;;;;;;;;;;;;;4.29;100.00;99385.48;108398;1255;72906;-74
2024/02/12 05:16:35;;;;;;;;;;;;;;;4.26;100.00;99392.96;108430;1251;61965;-74
2024/02/12 05:24:34;;;;;;;;;;;;;;;4.27;100.00;99406.66;108363;1254;71280;-72
2024/02/12 05:27:02;;;;;;;;;;;;;;;4.27;100.00;99408.66;108315;1251;72448;-74
2024/02/12 05:29:28;;;;;;;;;;;;;;;4.22;100.00;99415.16;108402;1251;61109;-74
2024/02/12 05:31:56;;;;;;;;;;;;;;;4.18;100.00;99417.81;108341;1251;58923;-73
2024/02/12 05:34:24;;;;;;;;;;;;;;;4.14;100.00;99423.30;108411;1251;72378;-74
2024/02/12 05:36:53;;;;;;;;;;;;;;;4.14;100.00;99420.38;108347;1251;70549;-75
2024/02/12 05:39:21;;;;;;;;;;;;;;;4.16;100.00;99415.02;108264;1251;71451;-73
2024/02/12 05:41:48;;;;;;;;;;;;;;;4.21;100.00;99417.69;108416;1251;61766;-76
2024/02/12 05:44:15;;;;;;;;;;;;;;;4.25;100.00;99420.27;108413;1251;59443;-75
2024/02/12 05:46:42;;;;;;;;;;;;;;;4.28;100.00;99419.95;108368;1251;73702;-74
2024/02/12 05:49:13;;;;;;;;;;;;;;;4.29;100.00;99420.60;108368;1251;71709;-73
2024/02/12 05:51:43;;;;;;;;;;;;;;;4.29;100.00;99424.61;108365;1251;72613;-74
2024/02/12 05:54:10;;;;;;;;;;;;;;;4.31;100.00;99424.67;108385;1251;61193;-74
2024/02/12 05:56:39;;;;;;;;;;;;;;;4.31;100.00;99421.78;108344;1256;61126;-74
2024/02/12 05:59:06;;;;;;;;;;;;;;;4.31;100.00;99421.52;108337;1251;74632;-73
2024/02/12 06:01:33;;;;;;;;;;;;;;;4.41;100.00;99419.23;108380;1251;71369;-75
2024/02/12 06:04:00;;;;;;;;;;;;;;;4.87;100.00;99414.61;108328;1251;71151;-74
2024/02/12 06:06:27;;;;;;;;;;;;;;;4.96;100.00;99410.64;108394;1251;62006;-75
2024/02/12 06:08:55;;;;;;;;;;;;;;;5.00;100.00;99407.41;108363;1251;61074;-73
2024/02/12 06:11:23;;;;;;;;;;;;;;;5.01;100.00;99403.02;108480;1251;73235;-74
2024/02/12 06:13:51;;;;;;;;;;;;;;;4.98;100.00;99407.65;108308;1254;72800;-73
2024/02/12 06:16:17;;;;;;;;;;;;;;;4.97;100.00;99402.34;108389;1256;74868;-74
2024/02/12 06:18:44;;;;;;;;;;;;;;;4.96;100.00;99398.63;108387;1251;61176;-74
2024/02/12 06:21:11;;;;;;;;;;;;;;;4.97;100.00;99395.52;108430;1251;61220;-74
2024/02/12 06:23:38;;;;;;;;;;;;;;;5.01;100.00;99385.34;108336;1251;74628;-75
2024/02/12 06:26:05;;;;;;;;;;;;;;;5.07;100.00;99384.61;108398;1251;71268;-74
2024/02/12 06:28:32;;;;;;;;;;;;;;;5.10;100.00;99384.48;108289;1251;71367;-73
2024/02/12 06:30:59;;;;;;;;;;;;;;;5.13;100.00;99385.52;108387;1251;61271;-73
2024/02/12 06:33:26;;;;;;;;;;;;;;;5.13;100.00;99381.44;108340;1251;61087;-73
2024/02/12 06:35:53;;;;;;;;;;;;;;;5.12;100.00;99385.04;108320;1251;73177;-73
2024/02/12 06:38:20;;;;;;;;;;;;;;;5.12;100.00;99387.09;108352;1251;72770;-72
2024/02/12 06:40:48;;;;;;;;;;;;;;;5.12;100.00;99385.77;108397;1251;73326;-73
2024/02/12 06:43:15;;;;;;;;;;;;;;;5.15;100.00;99392.38;108240;1251;60938;-76
2024/02/12 06:45:43;;;;;;;;;;;;;;;5.22;100.00;99401.86;108356;1251;60346;-75
2024/02/12 06:48:09;;;;;;;;;;;;;;;5.28;100.00;99399.60;108363;1251;74662;-75
2024/02/12 06:50:37;;;;;;;;;;;;;;;5.35;100.00;99400.08;108386;1251;70874;-75
2024/02/12 06:53:04;;;;;;;;;;;;;;;5.40;100.00;99398.52;108551;1251;72500;-73
2024/02/12 06:55:31;;;;;;;;;;;;;;;5.45;100.00;99399.20;108362;1251;62101;-75
2024/02/12 06:57:58;;;;;;;;;;;;;;;5.49;100.00;99398.88;108388;1251;61119;-73
2024/02/12 07:00:25;;;;;;;;;;;;;;;5.53;100.00;99401.61;108340;1251;73767;-75
2024/02/12 07:02:54;;;;;;;;;;;;;;;5.56;100.00;99402.38;108372;1251;73139;-73
2024/02/12 07:05:20;;;;;;;;;;;;;;;5.57;100.00;99399.86;108314;1251;71475;-75
2024/02/12 07:07:47;;;;;;;;;;;;;;;5.56;100.00;99398.61;108399;1251;61112;-75
2024/02/12 07:10:14;;;;;;;;;;;;;;;5.57;100.00;99398.26;108438;1251;60492;-74
2024/02/12 07:12:41;;;;;;;;;;;;;;;5.57;100.00;99396.52;108301;1251;74693;-75
2024/02/12 07:15:08;;;;;;;;;;;;;;;5.60;100.00;99398.23;108357;1251;72542;-74
2024/02/12 07:17:35;;;;;;;;;;;;;;;5.64;100.00;99402.50;108460;1256;73119;-74
2024/02/12 07:20:04;;;;;;;;;;;;;;;5.69;100.00;99404.50;108300;1255;61109;-74
2024/02/12 07:22:31;;;;;;;;;;;;;;;5.85;100.00;99405.91;108346;1251;59023;-74
2024/02/12 07:24:59;;;;;;;;;;;;;;;6.02;100.00;99401.75;108365;1251;74409;-74
2024/02/12 07:27:27;;;;;;;;;;;;;;;6.14;100.00;99403.33;108378;1251;71467;-74
2024/02/12 07:29:55;;;;;;;;;;;;;;;6.19;100.00;99398.02;108399;1251;72543;-74
2024/02/12 07:32:22;;;;;;;;;;;;;;;6.20;100.00;99395.99;108344;1251;61969;-74
2024/02/12 07:34:50;;;;;;;;;;;;;;;6.16;100.00;99401.64;108361;1251;61160;-74
2024/02/12 07:37:17;;;;;;;;;;;;;;;6.11;100.00;99396.36;108394;1255;73437;-74
2024/02/12 07:39:45;;;;;;;;;;;;;;;6.13;100.00;99396.54;108385;1251;70393;-74
2024/02/12 07:42:11;;;;;;;;;;;;;;;6.22;100.00;99401.58;108447;1251;72692;-74
2024/02/12 07:44:39;;;;;;;;;;;;;;;6.31;100.00;99398.17;108466;1251;61800;-74
2024/02/12 07:47:06;;;;;;;;;;;;;;;6.37;100.00;99397.09;108387;1251;61118;-74
2024/02/12 07:49:34;;;;;;;;;;;;;;;6.39;100.00;99395.20;108353;1251;73477;-75
2024/02/12 07:52:01;;;;;;;;;;;;;;;6.44;100.00;99391.51;108361;1251;72794;-75
2024/02/12 07:54:29;;;;;;;;;;;;;;;6.50;100.00;99387.55;108351;1251;72676;-74
2024/02/12 07:56:57;;;;;;;;;;;;;;;6.54;100.00;99389.96;108353;1251;61806;-73
2024/02/12 07:59:24;;;;;;;;;;;;;;;6.55;100.00;99394.27;108350;1251;61112;-74
2024/02/12 08:01:54;;;;;;;;;;;;;;;6.55;100.00;99391.08;108674;1251;74692;-73
2024/02/12 08:04:21;;;;;;;;;;;;;;;6.60;100.00;99391.41;108374;1251;71941;-73
2024/02/12 08:06:50;;;;;;;;;;;;;;;6.62;100.00;99389.63;108366;1256;72005;-74
2024/02/12 08:09:17;;;;;;;;;;;;;;;6.63;100.00;99392.27;108407;1251;61912;-74
2024/02/12 08:11:44;;;;;;;;;;;;;;;6.58;100.00;99391.30;108413;1251;59096;-75
2024/02/12 08:14:11;;;;;;;;;;;;;;;6.84;100.00;99385.34;108473;1256;73245;-75
2024/02/12 08:16:48;;;;;;;;;;;;;;;6.99;100.00;99386.09;108339;1251;71192;-74
2024/02/12 08:19:18;;;;;;;;;;;;;;;7.05;100.00;99390.98;108431;1256;73224;-74
2024/02/12 08:21:45;;;;;;;;;;;;;;;7.13;100.00;99393.33;108330;1251;61081;-74
2024/02/12 08:24:16;;;;;;;;;;;;;;;7.19;100.00;99397.49;108406;1251;61186;-74
2024/02/12 08:26:45;;;;;;;;;;;;;;;7.28;100.00;99396.92;108387;1251;73899;-74
2024/02/12 08:29:12;;;;;;;;;;;;;;;7.44;100.00;99393.92;108386;1251;72765;-74
2024/02/12 08:31:40;;;;;;;;;;;;;;;7.61;100.00;99398.50;108356;1251;73773;-71
2024/02/12 08:34:07;;;;;;;;;;;;;;;7.77;100.00;99405.20;108337;1251;61752;-74
2024/02/12 08:36:34;;;;;;;;;;;;;;;7.92;100.00;99407.73;108392;1251;60869;-74
2024/02/12 08:39:01;;;;;;;;;;;;;;;8.06;100.00;99408.67;108349;1251;73597;-73
2024/02/12 08:41:36;;;;;;;;;;;;;;;8.20;100.00;99407.59;108422;1251;72798;-73
2024/02/12 08:44:05;;;;;;;;;;;;;;;8.38;100.00;99409.52;108319;1251;71750;-74
2024/02/12 08:46:35;;;;;;;;;;;;;;;8.57;100.00;99405.88;108316;1251;62174;-74
2024/02/12 08:49:02;;;;;;;;;;;;;;;8.72;100.00;99402.41;93243;1252;10002121;-72
2024/02/12 08:51:29;;;;;;;;;;;;;;;8.84;100.00;99394.80;93725;1254;10002137;-73
2024/02/12 08:53:56;;;;;;;;;;;;;;;8.89;100.00;99393.97;108235;1251;61355;-73
2024/02/12 08:56:55;;;;;;;;;;;;;;;9.01;100.00;99394.50;108261;1253;70631;-73
2024/02/12 08:59:43;;;;;;;;;;;;;;;9.16;100.00;99385.30;108409;1251;61934;-72
2024/02/12 09:02:28;;;;;;;;;;;;;;;9.26;100.00;99379.06;108641;1251;61279;-71
2024/02/12 09:04:59;;;;;;;;;;;;;;;9.19;100.00;99384.11;108627;1251;73288;-72
2024/02/12 09:07:26;;;;;;;;;;;;;;;9.15;100.00;99388.30;108952;1251;72665;-74
2024/02/12 09:09:53;;;;;;;;;;;;;;;9.17;100.00;99387.22;109017;1251;72573;-73
2024/02/12 09:12:21;;;;;;;;;;;;;;;9.22;100.00;99393.27;108351;1254;61217;-72
2024/02/12 09:14:49;;;;;;;;;;;;;;;9.26;100.00;99390.03;108324;1254;61116;-74
2024/02/12 09:17:17;;;;;;;;;;;;;;;9.32;100.00;99389.48;108233;1251;74665;-74
2024/02/12 09:19:44;;;;;;;;;;;;;;;9.41;100.00;99392.55;108290;1251;72188;-73
2024/02/12 09:22:11;;;;;;;;;;;;;;;9.49;100.00;99390.52;108260;1251;72467;-72
2024/02/12 09:24:41;;;;;;;;;;;;;;;9.55;100.00;99392.39;108250;1251;61707;-73
2024/02/12 09:27:08;;;;;;;;;;;;;;;9.61;100.00;99398.37;108217;1251;61103;-73
2024/02/12 09:29:35;;;;;;;;;;;;;;;9.63;100.00;99395.95;108259;1251;75092;-73
2024/02/12 09:32:05;;;;;;;;;;;;;;;9.62;100.00;99395.74;108212;1251;71514;-75
2024/02/12 09:34:35;;;;;;;;;;;;;;;9.61;100.00;99396.77;108538;1256;72540;-73
2024/02/12 09:37:03;;;;;;;;;;;;;;;9.62;100.00;99396.02;108713;1256;61847;-72
2024/02/12 09:39:35;;;;;;;;;;;;;;;9.63;100.00;99394.24;108414;1251;60873;-72
2024/02/12 09:42:05;;;;;;;;;;;;;;;9.63;100.00;99392.55;108441;1251;73579;-71
2024/02/12 09:44:32;;;;;;;;;;;;;;;9.66;100.00;99388.20;108297;1251;71386;-73
2024/02/12 09:47:00;;;;;;;;;;;;;;;9.67;100.00;99390.48;108316;1252;71442;-71
2024/02/12 09:49:27;;;;;;;;;;;;;;;9.71;100.00;99382.77;108266;1251;61808;-72
2024/02/12 09:51:54;;;;;;;;;;;;;;;9.74;100.00;99378.05;108285;1257;61092;-71
2024/02/12 09:54:31;;;;;;;;;;;;;;;9.77;100.00;99374.13;108523;1251;237750;-72
2024/02/12 09:57:04;;;;;;;;;;;;;;;9.80;100.00;99371.81;108060;1252;72849;-70
2024/02/12 09:59:32;;;;;;;;;;;;;;;9.81;100.00;99374.10;108366;1256;71385;-72
2024/02/12 10:01:59;;;;;;;;;;;;;;;9.84;100.00;99369.80;108207;1253;61714;-72
2024/02/12 10:04:26;;;;;;;;;;;;;;;9.88;100.00;99375.32;108415;1253;61096;-72
2024/02/12 10:06:56;;;;;;;;;;;;;;;9.95;100.00;99376.96;108338;1251;74644;-72
2024/02/12 10:09:23;;;;;;;;;;;;;;;10.03;100.00;99376.67;108400;1251;72784;-72
2024/02/12 10:11:50;;;;;;;;;;;;;;;10.09;100.00;99369.23;108388;1256;73766;-72
2024/02/12 10:14:32;;;;;;;;;;;;;;;10.10;100.00;99366.03;108413;1254;61231;-73
2024/02/12 10:17:02;;;;;;;;;;;;;;;10.15;100.00;99362.19;108356;1251;61060;-72
2024/02/12 10:19:30;;;;;;;;;;;;;;;10.21;100.00;99355.30;108399;1251;73330;-72
2024/02/12 10:21:58;;;;;;;;;;;;;;;10.26;100.00;99352.96;108429;1251;72783;-73
2024/02/12 10:24:26;;;;;;;;;;;;;;;10.30;100.00;99352.03;108414;1252;73059;-72
2024/02/12 10:26:53;;;;;;;;;;;;;;;10.35;100.00;99348.02;108401;1251;61290;-72
2024/02/12 10:29:20;;;;;;;;;;;;;;;10.43;100.00;99348.83;108428;1255;61230;-73
2024/02/12 10:31:48;;;;;;;;;;;;;;;10.49;100.00;99351.59;108388;1251;73659;-74
2024/02/12 10:34:15;;;;;;;;;;;;;;;10.52;100.00;99346.52;108356;1257;72854;-72
2024/02/12 10:36:43;;;;;;;;;;;;;;;10.57;100.00;99345.05;108347;1253;71704;-73
2024/02/12 10:39:12;;;;;;;;;;;;;;;10.61;100.00;99339.34;108331;1251;60435;-72
2024/02/12 10:41:40;;;;;;;;;;;;;;;10.63;100.00;99338.92;108348;1251;61090;-74
2024/02/12 10:44:07;;;;;;;;;;;;;;;10.66;100.00;99337.34;108361;1253;73476;-72
2024/02/12 10:46:34;;;;;;;;;;;;;;;10.68;100.00;99334.38;108285;1258;71510;-73
2024/02/12 10:49:02;;;;;;;;;;;;;;;10.73;100.00;99335.31;108258;1251;72630;-72
2024/02/12 10:51:29;;;;;;;;;;;;;;;10.78;100.00;99332.36;108320;1255;63089;-71
2024/02/12 10:53:56;;;;;;;;;;;;;;;10.82;100.00;99334.35;108337;1252;61105;-74
2024/02/12 10:56:23;;;;;;;;;;;;;;;10.84;100.00;99334.53;108412;1256;74460;-73
2024/02/12 10:58:50;;;;;;;;;;;;;;;11.28;100.00;99326.84;108270;1251;72763;-73
2024/02/12 11:01:17;;;;;;;;;;;;;;;12.11;100.00;99314.87;108394;1256;71342;-73
2024/02/12 11:03:45;;;;;;;;;;;;;;;10.31;100.00;99324.48;108316;1255;62324;-73
2024/02/12 11:06:14;;;;;;;;;;;;;;;9.74;100.00;99333.67;108384;1257;60072;-74
2024/02/12 11:08:42;;;;;;;;;;;;;;;9.66;100.00;99334.14;108415;1252;74683;-72
2024/02/12 11:11:12;;;;;;;;;;;;;;;9.64;100.00;99334.63;108388;1251;72850;-73
2024/02/12 11:13:39;;;;;;;;;;;;;;;9.66;100.00;99334.39;108333;1251;71482;-73
2024/02/12 11:16:12;;;;;;;;;;;;;;;9.67;100.00;99334.66;108329;1251;61081;-72
2024/02/12 11:18:39;;;;;;;;;;;;;;;9.70;100.00;99331.10;108437;1251;61099;-72
2024/02/12 11:21:08;;;;;;;;;;;;;;;9.72;100.00;99334.04;108375;1257;74658;-72
2024/02/12 11:23:35;;;;;;;;;;;;;;;9.71;100.00;99338.00;108434;1251;74011;-73
2024/02/12 11:26:05;;;;;;;;;;;;;;;9.68;100.00;99334.02;108381;1251;71508;-72
2024/02/12 11:28:33;;;;;;;;;;;;;;;9.69;100.00;99339.30;108332;1251;61906;-74
2024/02/12 11:30:59;;;;;;;;;;;;;;;9.70;100.00;99338.09;108408;1253;61224;-73
2024/02/12 11:33:27;;;;;;;;;;;;;;;9.73;100.00;99340.79;108345;1251;74796;-73
2024/02/12 11:36:05;;;;;;;;;;;;;;;9.74;100.00;99340.84;108407;1251;71544;-72
2024/02/12 11:38:35;;;;;;;;;;;;;;;9.73;100.00;99337.64;108375;1256;71620;-73
2024/02/12 11:41:05;;;;;;;;;;;;;;;9.73;100.00;99336.46;108536;1251;61359;-75
2024/02/12 11:43:32;;;;;;;;;;;;;;;9.74;100.00;99331.88;108385;1254;61090;-73
2024/02/12 11:46:02;;;;;;;;;;;;;;;9.78;100.00;99327.52;108358;1251;74634;-72
2024/02/12 11:48:29;;;;;;;;;;;;;;;9.82;100.00;99322.68;108388;1251;71228;-72
2024/02/12 11:50:57;;;;;;;;;;;;;;;9.86;100.00;99325.89;108362;1251;71754;-72
2024/02/12 11:53:25;;;;;;;;;;;;;;;9.90;100.00;99318.23;108336;1252;62117;-72
2024/02/12 11:55:52;;;;;;;;;;;;;;;9.94;100.00;99315.99;108470;1251;61196;-72
2024/02/12 11:58:19;;;;;;;;;;;;;;;10.02;100.00;99315.76;108423;1256;75178;-71
2024/02/12 12:00:46;;;;;;;;;;;;;;;10.28;100.00;99314.58;108359;1255;72613;-72
2024/02/12 12:03:12;;;;;;;;;;;;;;;10.39;100.00;99309.64;108344;1251;73680;-72
2024/02/12 12:05:41;;;;;;;;;;;;;;;10.43;100.00;99309.65;108094;1253;62118;-72
2024/02/12 12:08:10;;;;;;;;;;;;;;;10.44;100.00;99305.16;108446;1251;58768;-73
2024/02/12 12:10:37;;;;;;;;;;;;;;;10.50;100.00;99306.45;108423;1251;74728;-74
2024/02/12 12:13:03;;;;;;;;;;;;;;;10.55;100.00;99300.90;108470;1251;72640;-74
2024/02/12 12:15:31;;;;;;;;;;;;;;;10.59;100.00;99302.09;108399;1255;72639;-72
2024/02/12 12:17:58;;;;;;;;;;;;;;;10.62;100.00;99299.05;108334;1254;61140;-73
2024/02/12 12:20:29;;;;;;;;;;;;;;;10.54;100.00;99299.36;108421;1253;60543;-74
2024/02/12 12:22:57;;;;;;;;;;;;;;;10.45;100.00;99297.72;108426;1251;75182;-73
2024/02/12 12:25:26;;;;;;;;;;;;;;;10.41;100.00;99297.77;108391;1251;72794;-72
2024/02/12 12:27:53;;;;;;;;;;;;;;;10.44;100.00;99299.60;108378;1254;71482;-72
2024/02/12 12:30:20;;;;;;;;;;;;;;;10.46;100.00;99298.45;108358;1254;60840;-72
2024/02/12 12:32:48;;;;;;;;;;;;;;;10.45;100.00;99298.15;108362;1251;61391;-72
2024/02/12 12:35:16;;;;;;;;;;;;;;;10.38;100.00;99295.51;108289;1251;74432;-71
2024/02/12 12:37:47;;;;;;;;;;;;;;;10.30;100.00;99295.50;108369;1251;72800;-72
2024/02/12 12:40:19;;;;;;;;;;;;;;;10.26;100.00;99304.73;108328;1251;71316;-73
2024/02/12 12:42:47;;;;;;;;;;;;;;;10.22;100.00;99312.70;108373;1253;60631;-73
2024/02/12 12:45:15;;;;;;;;;;;;;;;10.22;100.00;99314.78;108375;1252;61186;-73
2024/02/12 12:47:41;;;;;;;;;;;;;;;10.27;100.00;99312.23;108242;1256;74643;-72
2024/02/12 12:50:09;;;;;;;;;;;;;;;10.27;100.00;99308.30;108400;1251;71913;-71
2024/02/12 12:52:37;;;;;;;;;;;;;;;10.27;100.00;99312.52;108283;1251;71343;-71
2024/02/12 12:55:07;;;;;;;;;;;;;;;10.30;100.00;99312.80;108363;1251;61800;-72
2024/02/12 12:57:37;;;;;;;;;;;;;;;10.34;100.00;99302.76;108332;1252;61145;-73